Time;durP1;ratioP1;P1;durP2;ratioP2;P2;SDS_P1;SDS_P2;PMS_P1;PMS_P2;Temp;Humidity;BMP_temperature;BMP_pressure;BME280_temperature;BME280_humidity;BME280_pressure;Samples;Min_cycle;Max_cycle;Signal;HPM_P1;HPM_P2
2023/12/23 00:00:13;;;;;;;4.70;4.17;;;;;;;5.36;56.62;93534.84;4982404;28;20188;-70
2023/12/23 00:02:38;;;;;;;4.40;3.97;;;;;;;5.44;56.99;93534.88;4982901;28;20224;-70
2023/12/23 00:05:04;;;;;;;4.17;3.20;;;;;;;5.43;56.79;93533.25;4984675;28;20227;-75
2023/12/23 00:07:30;;;;;;;4.47;3.47;;;;;;;5.45;56.63;93544.31;4974443;28;20224;-70
2023/12/23 00:09:55;;;;;;;4.70;3.97;;;;;;;5.33;57.00;93519.53;4967943;28;20208;-67
2023/12/23 00:12:21;;;;;;;4.53;3.87;;;;;;;5.32;57.25;93518.72;4985132;28;20202;-69
2023/12/23 00:14:46;;;;;;;4.43;3.83;;;;;;;5.38;56.85;93506.84;4982132;28;20227;-67
2023/12/23 00:17:11;;;;;;;5.07;3.93;;;;;;;5.39;56.65;93474.56;4982165;28;20299;-74
2023/12/23 00:19:37;;;;;;;5.73;4.20;;;;;;;5.41;56.63;93483.88;4987888;28;20220;-68
2023/12/23 00:22:02;;;;;;;5.43;3.70;;;;;;;5.36;57.14;93480.91;4987669;28;20219;-67
2023/12/23 00:24:29;;;;;;;4.67;3.73;;;;;;;5.37;57.23;93464.28;4988705;28;20215;-70
2023/12/23 00:26:57;;;;;;;4.70;4.03;;;;;;;5.28;57.02;93470.47;4987108;28;20220;-69
2023/12/23 00:29:32;;;;;;;4.93;3.77;;;;;;;5.19;57.45;93477.44;4988999;28;20222;-73
2023/12/23 00:31:57;;;;;;;4.27;3.60;;;;;;;5.24;57.37;93490.81;4987539;28;20220;-74
2023/12/23 00:34:23;;;;;;;5.70;4.23;;;;;;;5.21;57.52;93496.34;4977746;28;20327;-74
2023/12/23 00:36:49;;;;;;;6.00;3.33;;;;;;;5.20;57.50;93476.47;4962101;28;20192;-73
2023/12/23 00:39:15;;;;;;;4.33;3.33;;;;;;;5.18;57.73;93486.22;4980767;28;20195;-73
2023/12/23 00:41:41;;;;;;;4.00;3.37;;;;;;;5.12;57.84;93496.47;4979795;28;20337;-73
2023/12/23 00:44:06;;;;;;;5.30;4.03;;;;;;;5.06;58.25;93488.28;4969394;28;20220;-74
2023/12/23 00:46:32;;;;;;;5.20;3.80;;;;;;;5.11;58.17;93494.84;4971812;28;20296;-73
2023/12/23 00:48:57;;;;;;;5.20;4.30;;;;;;;5.06;58.32;93487.47;4982246;28;20299;-74
2023/12/23 00:51:22;;;;;;;4.30;3.90;;;;;;;5.04;58.27;93469.38;4985099;28;20197;-73
2023/12/23 00:53:48;;;;;;;4.93;4.40;;;;;;;5.00;58.19;93472.47;4980364;28;20227;-73
2023/12/23 00:56:21;;;;;;;4.47;3.90;;;;;;;4.94;59.03;93493.91;4980839;28;20282;-74
2023/12/23 00:58:46;;;;;;;5.73;3.93;;;;;;;5.08;58.08;93485.53;4985583;28;20215;-74
2023/12/23 01:01:12;;;;;;;5.00;4.07;;;;;;;5.03;58.30;93485.19;4981135;28;20370;-75
2023/12/23 01:03:37;;;;;;;4.50;4.00;;;;;;;5.09;58.47;93480.16;4964336;28;20190;-75
2023/12/23 01:06:03;;;;;;;5.43;3.90;;;;;;;5.05;58.65;93472.81;4973219;28;20232;-74
2023/12/23 01:08:28;;;;;;;6.57;4.10;;;;;;;4.95;59.00;93453.91;4989303;28;20215;-74
2023/12/23 01:10:54;;;;;;;7.13;4.27;;;;;;;4.94;58.73;93460.06;4983680;28;20301;-75
2023/12/23 01:13:20;;;;;;;6.33;4.63;;;;;;;5.01;58.85;93459.28;4983378;28;20226;-75
2023/12/23 01:15:45;;;;;;;5.63;5.03;;;;;;;5.01;58.49;93459.28;4985088;28;20179;-75
2023/12/23 01:18:10;;;;;;;6.87;5.07;;;;;;;5.15;58.48;93444.03;4994186;28;20219;-74
2023/12/23 01:20:38;;;;;;;6.83;5.20;;;;;;;5.08;58.42;93441.25;4987912;28;20227;-74
2023/12/23 01:23:04;;;;;;;7.30;4.77;;;;;;;5.08;58.66;93438.66;4977572;28;20311;-74
2023/12/23 01:25:29;;;;;;;5.90;4.77;;;;;;;5.15;58.61;93413.56;4971726;28;20296;-74
2023/12/23 01:27:55;;;;;;;7.23;5.53;;;;;;;5.15;58.59;93402.34;4966930;28;20181;-73
2023/12/23 01:30:20;;;;;;;6.47;4.63;;;;;;;5.12;58.56;93402.66;4986397;28;20207;-74
2023/12/23 01:32:45;;;;;;;6.47;5.07;;;;;;;5.09;58.75;93424.63;4965824;28;20224;-74
2023/12/23 01:35:11;;;;;;;5.47;4.10;;;;;;;5.11;58.67;93381.00;4980634;28;20234;-74
2023/12/23 01:37:37;;;;;;;4.37;3.93;;;;;;;5.09;58.27;93375.13;4986582;28;20299;-74
2023/12/23 01:40:03;;;;;;;4.37;3.87;;;;;;;5.10;58.53;93392.38;4984253;28;20183;-74
2023/12/23 01:42:29;;;;;;;5.17;4.07;;;;;;;4.92;59.11;93376.88;4978226;28;20230;-74
2023/12/23 01:44:54;;;;;;;4.87;4.10;;;;;;;4.95;58.89;93381.78;4983751;28;20216;-74
2023/12/23 01:47:20;;;;;;;6.13;4.50;;;;;;;5.02;58.88;93309.00;4971073;28;20213;-73
2023/12/23 01:49:47;;;;;;;6.13;4.37;;;;;;;5.08;59.09;93383.94;4971295;28;20234;-73
2023/12/23 01:52:12;;;;;;;5.07;4.17;;;;;;;4.78;60.30;93333.19;4974659;28;20219;-74
2023/12/23 01:54:38;;;;;;;5.17;4.03;;;;;;;4.85;59.95;93363.66;4982885;28;20191;-75
2023/12/23 01:57:04;;;;;;;6.30;4.90;;;;;;;4.75;60.22;93394.22;4983619;28;20232;-73
2023/12/23 01:59:29;;;;;;;5.10;4.60;;;;;;;4.58;60.88;93311.84;4981823;28;20226;-74
2023/12/23 02:01:55;;;;;;;4.80;4.20;;;;;;;4.64;60.70;93324.22;4988021;28;20223;-74
2023/12/23 02:04:20;;;;;;;4.63;4.23;;;;;;;4.61;60.49;93343.56;4990078;28;20224;-74
2023/12/23 02:06:46;;;;;;;5.10;3.73;;;;;;;4.70;60.19;93336.59;4985613;28;20251;-74
2023/12/23 02:09:11;;;;;;;4.27;3.33;;;;;;;4.84;59.38;93337.78;4981250;28;20231;-74
2023/12/23 02:12:15;;;;;;;5.53;3.93;;;;;;;4.88;59.25;93349.50;4982765;28;20267;-74
2023/12/23 02:14:50;;;;;;;4.60;3.60;;;;;;;4.91;58.91;93323.16;4892675;29;20255;-74
2023/12/23 02:17:16;;;;;;;4.77;3.23;;;;;;;5.03;58.66;93363.56;4885012;29;20218;-74
2023/12/23 02:19:42;;;;;;;3.37;2.50;;;;;;;4.98;58.68;93359.81;4909733;29;20223;-74
2023/12/23 02:22:07;;;;;;;3.57;2.57;;;;;;;5.05;58.72;93359.03;4898926;29;20381;-73
2023/12/23 02:24:33;;;;;;;3.90;2.60;;;;;;;5.07;58.52;93369.25;4913153;29;20261;-74
2023/12/23 02:27:09;;;;;;;4.00;2.60;;;;;;;4.88;59.92;93353.91;4899642;29;20237;-73
2023/12/23 02:29:36;;;;;;;2.50;2.30;;;;;;;4.92;60.39;93366.47;4912414;29;20227;-74
2023/12/23 02:32:01;;;;;;;3.33;2.73;;;;;;;4.84;60.58;93356.03;4885373;29;20229;-74
2023/12/23 02:34:28;;;;;;;3.90;2.73;;;;;;;4.90;60.11;93338.94;4893489;29;20312;-74
2023/12/23 02:36:53;;;;;;;3.27;2.87;;;;;;;4.83;60.29;93334.34;4910708;29;20333;-73
2023/12/23 02:39:19;;;;;;;3.20;2.90;;;;;;;4.80;60.94;93344.28;4897319;29;20308;-74
2023/12/23 02:41:44;;;;;;;4.47;3.00;;;;;;;4.75;60.71;93331.72;4898125;29;20364;-74
2023/12/23 02:44:09;;;;;;;2.87;2.37;;;;;;;4.80;60.78;93346.88;4891410;29;20222;-73
2023/12/23 02:46:37;;;;;;;3.37;2.60;;;;;;;4.57;61.18;93355.28;4983455;28;20224;-73
2023/12/23 02:49:02;;;;;;;3.80;3.13;;;;;;;4.62;61.20;93347.81;4990695;28;20283;-73
2023/12/23 02:51:28;;;;;;;3.57;3.20;;;;;;;4.70;61.38;93309.75;4989657;28;20235;-74
2023/12/23 02:53:53;;;;;;;3.30;2.60;;;;;;;4.70;61.08;93338.38;4990860;28;20234;-74
2023/12/23 02:56:18;;;;;;;2.97;2.67;;;;;;;4.67;61.31;93313.47;4982049;28;20224;-74
2023/12/23 02:58:44;;;;;;;4.47;2.27;;;;;;;4.75;61.06;93308.28;4978804;28;20326;-74
2023/12/23 03:01:09;;;;;;;3.93;2.73;;;;;;;4.60;61.04;93310.69;4987903;28;20220;-74
2023/12/23 03:03:35;;;;;;;2.63;2.13;;;;;;;4.61;61.38;93306.31;4983432;28;20219;-75
2023/12/23 03:06:00;;;;;;;3.03;2.50;;;;;;;4.57;61.44;93350.06;4988363;28;20239;-80
2023/12/23 03:08:26;;;;;;;3.77;2.50;;;;;;;4.57;61.64;93336.22;4983242;28;20223;-73
2023/12/23 03:10:51;;;;;;;2.90;2.50;;;;;;;4.55;61.22;93380.63;4982572;28;20236;-74
2023/12/23 03:13:17;;;;;;;3.37;2.60;;;;;;;4.50;61.58;93340.44;4985757;28;20216;-74
2023/12/23 03:15:42;;;;;;;3.50;2.63;;;;;;;4.58;61.25;93333.47;4984926;28;20196;-74
2023/12/23 03:18:08;;;;;;;2.93;2.43;;;;;;;4.61;61.20;93347.97;4988589;28;20226;-74
2023/12/23 03:20:33;;;;;;;3.57;2.40;;;;;;;4.68;61.31;93341.16;4984199;28;20223;-74
2023/12/23 03:22:59;;;;;;;2.40;2.13;;;;;;;4.59;61.35;93374.13;4984304;28;20219;-74
2023/12/23 03:25:24;;;;;;;2.20;2.00;;;;;;;4.52;61.56;93347.13;4983169;28;20311;-73
2023/12/23 03:27:50;;;;;;;1.97;1.77;;;;;;;4.60;61.48;93359.34;4984406;28;20238;-73
2023/12/23 03:30:15;;;;;;;2.00;1.80;;;;;;;4.62;61.08;93355.63;4983810;28;20295;-74
2023/12/23 03:32:41;;;;;;;2.37;2.17;;;;;;;4.58;61.03;93343.88;4981815;28;20231;-73
2023/12/23 03:35:07;;;;;;;2.03;1.80;;;;;;;4.46;61.64;93363.34;4987264;28;20220;-74
2023/12/23 03:37:32;;;;;;;3.50;2.27;;;;;;;4.54;61.40;93316.50;4984006;28;20239;-74
2023/12/23 03:39:58;;;;;;;2.57;2.10;;;;;;;4.59;61.44;93366.31;4982460;28;20184;-75
2023/12/23 03:42:23;;;;;;;2.03;1.83;;;;;;;4.45;61.51;93340.09;4993322;28;20221;-75
2023/12/23 03:44:48;;;;;;;2.40;2.07;;;;;;;4.41;61.79;93326.53;4990317;28;20219;-73
2023/12/23 03:47:14;;;;;;;2.23;1.80;;;;;;;4.48;61.48;93345.78;4987351;28;20232;-75
2023/12/23 03:49:40;;;;;;;3.60;2.00;;;;;;;4.34;62.09;93305.56;4985216;28;20235;-74
2023/12/23 03:52:05;;;;;;;2.73;2.10;;;;;;;4.39;61.88;93320.69;4981479;28;20239;-75
2023/12/23 03:54:31;;;;;;;4.53;2.20;;;;;;;4.35;61.83;93317.56;4984612;28;20266;-74
2023/12/23 03:56:56;;;;;;;3.20;2.37;;;;;;;4.38;61.71;93316.44;4986751;28;20370;-75
2023/12/23 03:59:22;;;;;;;3.27;2.70;;;;;;;4.43;61.65;93309.81;4981463;28;20219;-75
2023/12/23 04:01:47;;;;;;;2.70;2.43;;;;;;;4.45;61.66;93312.25;4989312;28;20284;-74
2023/12/23 04:04:12;;;;;;;4.37;2.27;;;;;;;4.41;61.26;93310.94;4988951;28;20228;-75
2023/12/23 04:06:38;;;;;;;2.90;2.30;;;;;;;4.49;61.46;93318.81;4985035;28;20235;-74
2023/12/23 04:09:03;;;;;;;2.67;2.30;;;;;;;4.57;60.92;93295.41;4989935;28;20231;-73
2023/12/23 04:11:29;;;;;;;3.47;2.17;;;;;;;4.43;61.35;93278.56;4994675;28;20273;-74
2023/12/23 04:13:54;;;;;;;2.20;1.90;;;;;;;4.49;61.30;93276.31;4991888;28;20234;-74
2023/12/23 04:16:20;;;;;;;2.67;2.00;;;;;;;4.50;61.47;93276.16;4979157;28;20227;-74
2023/12/23 04:18:45;;;;;;;3.23;2.10;;;;;;;4.52;61.20;93307.25;4979231;28;20246;-74
2023/12/23 04:21:11;;;;;;;2.10;1.83;;;;;;;4.49;61.26;93289.31;4982068;28;20349;-74
2023/12/23 04:23:36;;;;;;;2.13;1.80;;;;;;;4.49;61.25;93307.53;4986049;28;20251;-74
2023/12/23 04:26:02;;;;;;;3.90;2.03;;;;;;;4.50;61.36;93314.41;4973167;28;20255;-74
2023/12/23 04:28:28;;;;;;;2.70;1.90;;;;;;;4.54;61.22;93346.94;4957206;28;20299;-75
2023/12/23 04:30:56;;;;;;;2.87;2.37;;;;;;;4.52;60.90;93351.50;4984893;28;20292;-73
2023/12/23 04:33:22;;;;;;;2.93;2.20;;;;;;;4.52;61.27;93346.31;4982200;28;20204;-75
2023/12/23 04:35:48;;;;;;;3.20;1.90;;;;;;;4.51;61.10;93321.22;4979498;28;20307;-74
2023/12/23 04:38:14;;;;;;;4.40;2.13;;;;;;;4.56;60.82;93292.94;4972157;28;20240;-74
2023/12/23 04:40:40;;;;;;;2.20;1.60;;;;;;;4.45;60.96;93290.63;4971491;28;20219;-74
2023/12/23 04:43:05;;;;;;;2.63;2.13;;;;;;;4.41;61.27;93295.31;4979689;28;20254;-74
2023/12/23 04:45:31;;;;;;;2.90;1.73;;;;;;;4.32;61.46;93278.06;4984231;28;20187;-74
2023/12/23 04:47:56;;;;;;;2.37;1.93;;;;;;;4.26;61.64;93291.69;4986208;28;20274;-75
2023/12/23 04:50:21;;;;;;;3.07;2.23;;;;;;;4.24;62.18;93327.44;4977052;28;20295;-74
2023/12/23 04:52:47;;;;;;;3.23;2.10;;;;;;;4.25;62.04;93311.69;4972090;28;20232;-75
2023/12/23 04:55:12;;;;;;;2.20;2.00;;;;;;;4.35;61.66;93324.56;4991973;28;20323;-74
2023/12/23 04:57:38;;;;;;;2.10;1.87;;;;;;;4.38;61.46;93293.03;4987811;28;20194;-74
2023/12/23 05:00:05;;;;;;;2.77;1.60;;;;;;;4.41;61.09;93313.53;4979067;28;20223;-73
2023/12/23 05:02:32;;;;;;;2.50;2.07;;;;;;;4.43;60.93;93322.81;4979743;28;20227;-74
2023/12/23 05:04:58;;;;;;;2.67;1.60;;;;;;;4.37;61.18;93328.66;4986267;28;20223;-72
2023/12/23 05:07:24;;;;;;;1.90;1.70;;;;;;;4.20;61.57;93353.78;4995599;28;20226;-74
2023/12/23 05:09:49;;;;;;;2.93;1.90;;;;;;;4.23;61.31;93367.47;4986114;28;20204;-74
2023/12/23 05:12:15;;;;;;;2.67;1.97;;;;;;;4.43;60.93;93398.28;4984519;28;20187;-75
2023/12/23 05:14:40;;;;;;;1.93;1.80;;;;;;;4.41;61.21;93399.41;4990194;28;20223;-75
2023/12/23 05:17:06;;;;;;;3.43;2.20;;;;;;;4.58;60.46;93392.53;4986077;28;20223;-74
2023/12/23 05:19:33;;;;;;;3.23;1.70;;;;;;;4.59;60.28;93391.53;4983614;28;20215;-75
2023/12/23 05:21:58;;;;;;;2.30;1.80;;;;;;;4.63;60.09;93398.91;4982353;28;20192;-74
2023/12/23 05:24:24;;;;;;;1.83;1.47;;;;;;;4.59;60.05;93388.94;4985114;28;20197;-74
2023/12/23 05:26:49;;;;;;;1.70;1.60;;;;;;;4.57;60.05;93370.88;4993379;28;20285;-74
2023/12/23 05:29:15;;;;;;;2.33;1.63;;;;;;;4.55;60.17;93364.22;4988307;28;20250;-74
2023/12/23 05:31:41;;;;;;;1.67;1.40;;;;;;;4.56;60.09;93382.25;4986238;28;20223;-74
2023/12/23 05:34:07;;;;;;;1.90;1.60;;;;;;;4.64;59.52;93389.28;4982326;28;20227;-75
2023/12/23 05:36:32;;;;;;;1.90;1.43;;;;;;;4.63;59.40;93395.47;4987434;28;20203;-79
2023/12/23 05:38:59;;;;;;;2.27;1.93;;;;;;;4.73;59.51;93377.13;4990292;28;20309;-74
2023/12/23 05:41:24;;;;;;;1.90;1.80;;;;;;;4.74;59.35;93374.38;4967150;28;20227;-75
2023/12/23 05:43:50;;;;;;;2.70;1.60;;;;;;;4.79;59.33;93402.56;4972886;28;20358;-74
2023/12/23 05:46:15;;;;;;;2.73;1.60;;;;;;;4.64;59.63;93376.28;4990647;28;20230;-75
2023/12/23 05:48:41;;;;;;;3.07;1.70;;;;;;;4.74;59.27;93357.94;4987208;28;20179;-75
2023/12/23 05:51:10;;;;;;;2.00;1.80;;;;;;;4.70;59.65;93377.44;4965496;28;20228;-73
2023/12/23 05:53:36;;;;;;;2.03;1.60;;;;;;;4.71;59.24;93359.06;4982721;28;20224;-73
2023/12/23 05:56:06;;;;;;;3.33;1.40;;;;;;;4.72;58.99;93347.66;4980713;28;20273;-74
2023/12/23 05:58:32;;;;;;;2.10;1.70;;;;;;;4.78;59.21;93380.88;4987384;28;20214;-75
2023/12/23 06:00:57;;;;;;;1.53;1.30;;;;;;;4.78;59.23;93395.69;4988823;28;20238;-74
2023/12/23 06:03:23;;;;;;;3.23;2.00;;;;;;;4.84;58.89;93390.69;4990161;28;20190;-74
2023/12/23 06:05:49;;;;;;;2.93;1.80;;;;;;;4.83;58.92;93393.44;4989419;28;20235;-74
2023/12/23 06:08:14;;;;;;;2.30;1.67;;;;;;;4.81;58.75;93374.53;4988492;28;20233;-75
2023/12/23 06:10:40;;;;;;;2.27;2.03;;;;;;;4.78;58.97;93403.50;4995880;28;20231;-76
2023/12/23 06:13:05;;;;;;;3.37;2.10;;;;;;;4.80;59.04;93404.19;5009719;28;20218;-75
2023/12/23 06:15:31;;;;;;;2.70;1.87;;;;;;;4.82;58.87;93395.22;4984566;28;20187;-75
2023/12/23 06:17:56;;;;;;;3.40;1.70;;;;;;;4.77;59.16;93426.13;4988061;28;20222;-75
2023/12/23 06:20:21;;;;;;;2.13;1.77;;;;;;;4.85;58.91;93410.53;4988750;28;20221;-74
2023/12/23 06:22:47;;;;;;;3.33;2.17;;;;;;;4.96;58.25;93414.66;4990184;28;20212;-76
2023/12/23 06:25:12;;;;;;;3.00;1.63;;;;;;;4.96;58.48;93417.25;4990561;28;20299;-76
2023/12/23 06:27:38;;;;;;;2.87;2.10;;;;;;;5.00;58.66;93417.78;4986957;28;20180;-75
2023/12/23 06:30:03;;;;;;;3.03;2.00;;;;;;;4.96;58.87;93398.22;4990236;28;20306;-74
2023/12/23 06:32:29;;;;;;;3.70;2.07;;;;;;;5.03;58.59;93412.25;4976414;28;20223;-75
2023/12/23 06:34:54;;;;;;;5.03;2.33;;;;;;;5.13;58.50;93414.72;4975162;28;20257;-74
2023/12/23 06:37:20;;;;;;;3.50;2.10;;;;;;;5.05;58.51;93418.09;4988566;28;20234;-76
2023/12/23 06:39:45;;;;;;;2.60;2.00;;;;;;;5.05;58.41;93392.88;4990024;28;20183;-74
2023/12/23 06:42:10;;;;;;;4.47;2.00;;;;;;;5.05;59.13;93399.84;4969421;28;20267;-75
2023/12/23 06:44:36;;;;;;;2.77;1.90;;;;;;;5.05;58.80;93366.84;4984162;28;20341;-75
2023/12/23 06:47:01;;;;;;;3.67;2.10;;;;;;;5.12;58.34;93372.22;4988793;28;20246;-74
2023/12/23 06:49:27;;;;;;;3.40;2.00;;;;;;;5.14;58.59;93378.09;4989524;28;20227;-74
2023/12/23 06:51:54;;;;;;;4.10;2.20;;;;;;;5.17;58.17;93411.63;4985775;28;20278;-75
2023/12/23 06:54:19;;;;;;;2.60;1.97;;;;;;;5.20;58.20;93394.88;4986461;28;20195;-75
2023/12/23 06:56:44;;;;;;;3.13;1.90;;;;;;;5.23;58.51;93425.81;4987135;28;20234;-74
2023/12/23 06:59:12;;;;;;;3.97;1.73;;;;;;;5.38;57.83;93434.66;4986070;28;20220;-75
2023/12/23 07:01:39;;;;;;;2.20;1.70;;;;;;;5.51;57.33;93400.31;5005116;28;20223;-74
2023/12/23 07:04:08;;;;;;;3.03;1.83;;;;;;;5.63;57.00;93417.25;4995602;28;20256;-74
2023/12/23 07:06:34;;;;;;;1.97;1.50;;;;;;;5.84;56.51;93405.56;4985932;28;20298;-76
2023/12/23 07:08:59;;;;;;;2.30;1.40;;;;;;;5.95;55.18;93397.44;4962337;28;20278;-75
2023/12/23 07:11:25;;;;;;;1.50;1.17;;;;;;;6.06;54.47;93423.19;4988912;28;20223;-76
2023/12/23 07:13:53;;;;;;;2.67;1.30;;;;;;;6.18;54.32;93427.13;4989881;28;20219;-75
2023/12/23 07:16:19;;;;;;;2.37;1.10;;;;;;;6.58;53.13;93427.22;4998389;28;20214;-76
2023/12/23 07:18:44;;;;;;;1.60;1.00;;;;;;;6.67;52.84;93421.00;4986150;28;20194;-75
2023/12/23 07:21:10;;;;;;;1.50;1.00;;;;;;;6.78;52.64;93422.44;4987201;28;20218;-76
2023/12/23 07:23:36;;;;;;;2.63;1.27;;;;;;;6.88;52.36;93412.63;4988825;28;20227;-76
2023/12/23 07:26:03;;;;;;;2.63;1.30;;;;;;;7.10;51.68;93420.69;4994631;28;20298;-75
2023/12/23 07:28:29;;;;;;;2.57;1.30;;;;;;;7.13;51.80;93426.41;4988049;28;20215;-74
2023/12/23 07:30:55;;;;;;;2.47;1.30;;;;;;;7.20;50.91;93422.13;4984720;28;20213;-74
2023/12/23 07:33:21;;;;;;;0.87;0.87;;;;;;;7.28;51.36;93424.69;4997507;28;20195;-75
2023/12/23 07:35:46;;;;;;;1.70;1.33;;;;;;;7.43;50.78;93419.56;4968774;28;20219;-76
2023/12/23 07:38:12;;;;;;;1.83;1.20;;;;;;;7.55;50.54;93435.69;4987397;28;20230;-75
2023/12/23 07:40:38;;;;;;;4.37;1.20;;;;;;;7.62;50.03;93430.59;4990252;28;20266;-75
2023/12/23 07:43:04;;;;;;;2.40;1.20;;;;;;;7.69;49.65;93444.59;4982658;28;20394;-75
2023/12/23 07:45:29;;;;;;;3.13;1.30;;;;;;;7.73;49.98;93435.41;4981441;28;20306;-74
2023/12/23 07:47:55;;;;;;;2.10;1.30;;;;;;;7.78;49.99;93440.13;4986639;28;20219;-76
2023/12/23 07:50:21;;;;;;;1.37;1.27;;;;;;;7.79;49.65;93429.47;4983263;28;20311;-74
2023/12/23 07:52:46;;;;;;;2.77;1.10;;;;;;;7.84;49.71;93427.16;4987150;28;20239;-75
2023/12/23 07:55:12;;;;;;;3.23;1.10;;;;;;;7.90;49.71;93433.50;4983685;28;20215;-75
2023/12/23 07:57:37;;;;;;;3.70;1.40;;;;;;;7.89;49.73;93452.81;4969911;28;20199;-74
2023/12/23 08:00:04;;;;;;;1.90;1.03;;;;;;;8.08;49.29;93477.72;4983107;28;20215;-75
2023/12/23 08:02:30;;;;;;;3.20;1.17;;;;;;;8.16;49.37;93465.38;4975319;28;20223;-74
2023/12/23 08:04:55;;;;;;;2.57;1.10;;;;;;;8.25;49.02;93458.28;4985274;28;20275;-75
2023/12/23 08:07:20;;;;;;;3.63;1.37;;;;;;;8.31;48.93;93496.03;4988463;28;20230;-75
2023/12/23 08:09:46;;;;;;;3.57;1.40;;;;;;;8.24;48.95;93493.31;4990880;28;20203;-75
2023/12/23 08:12:11;;;;;;;2.17;1.17;;;;;;;8.14;49.28;93477.81;4994020;28;20233;-74
2023/12/23 08:14:37;;;;;;;5.00;1.30;;;;;;;8.22;49.09;93494.47;4981990;28;20218;-75
2023/12/23 08:17:03;;;;;;;2.03;1.20;;;;;;;8.34;48.74;93501.75;4985505;28;20341;-75
2023/12/23 08:19:28;;;;;;;6.07;1.23;;;;;;;8.35;49.07;93492.91;4989106;28;20230;-75
2023/12/23 08:21:54;;;;;;;2.50;1.20;;;;;;;8.42;48.86;93502.69;4977987;28;20191;-75
2023/12/23 08:24:19;;;;;;;3.40;1.20;;;;;;;8.50;48.56;93502.63;4983313;28;20182;-79
2023/12/23 08:26:44;;;;;;;7.57;1.50;;;;;;;8.65;48.30;93547.22;4981398;28;20227;-75
2023/12/23 08:29:10;;;;;;;1.37;1.20;;;;;;;8.70;47.99;93514.25;4992136;28;20281;-75
2023/12/23 08:31:45;;;;;;;4.13;1.40;;;;;;;8.83;48.77;93532.81;4986982;28;20222;-75
2023/12/23 08:34:11;;;;;;;3.73;1.40;;;;;;;8.99;47.28;93525.81;4992355;28;20222;-76
2023/12/23 08:36:36;;;;;;;1.30;1.20;;;;;;;9.07;47.41;93536.22;4986018;28;20203;-74
2023/12/23 08:39:02;;;;;;;3.07;1.60;;;;;;;9.03;47.54;93618.81;4989045;28;20241;-76
2023/12/23 08:41:28;;;;;;;2.63;1.47;;;;;;;9.00;48.11;93585.09;4986601;28;20216;-74
2023/12/23 08:43:53;;;;;;;3.23;1.50;;;;;;;8.96;48.89;93607.44;4987439;28;20222;-75
2023/12/23 08:46:19;;;;;;;2.50;1.53;;;;;;;8.91;49.82;93621.06;4985902;28;20219;-74
2023/12/23 08:48:44;;;;;;;2.83;1.60;;;;;;;8.88;51.24;93607.50;4994801;28;20178;-73
2023/12/23 08:51:10;;;;;;;2.90;1.80;;;;;;;8.65;52.33;93610.91;4988033;28;20310;-75
2023/12/23 08:53:36;;;;;;;2.73;1.97;;;;;;;8.49;53.44;93638.03;4985085;28;20282;-74
2023/12/23 08:56:02;;;;;;;5.80;1.77;;;;;;;8.40;53.83;93636.47;4987224;28;20235;-75
2023/12/23 08:58:30;;;;;;;5.53;2.67;;;;;;;8.18;54.49;93651.13;4968146;28;20314;-74
2023/12/23 09:00:57;;;;;;;3.57;2.30;;;;;;;8.11;55.50;93686.81;4976255;28;20234;-75
2023/12/23 09:03:22;;;;;;;5.40;2.90;;;;;;;7.93;55.89;93700.91;4983602;28;20211;-75
2023/12/23 09:05:47;;;;;;;4.00;2.60;;;;;;;7.93;56.44;93677.38;4979790;28;20356;-77
2023/12/23 09:08:13;;;;;;;4.27;2.40;;;;;;;7.76;57.05;93725.50;4978520;28;20225;-76
2023/12/23 09:10:39;;;;;;;3.70;2.63;;;;;;;7.69;57.80;93724.53;4977436;28;20224;-75
2023/12/23 09:13:05;;;;;;;4.43;2.53;;;;;;;7.60;58.48;93705.41;4979525;28;20186;-75
2023/12/23 09:15:30;;;;;;;7.07;3.00;;;;;;;7.49;59.46;93696.13;4982547;28;20176;-76
2023/12/23 09:17:56;;;;;;;5.00;3.07;;;;;;;7.59;60.00;93721.25;4980626;28;20215;-73
2023/12/23 09:20:21;;;;;;;4.70;2.77;;;;;;;7.72;60.22;93727.66;4981188;28;20216;-75
2023/12/23 09:22:47;;;;;;;4.93;2.90;;;;;;;7.71;59.91;93722.56;4979115;28;20220;-75
2023/12/23 09:25:12;;;;;;;6.60;2.93;;;;;;;7.77;59.83;93723.69;4981709;28;20261;-75
2023/12/23 09:27:38;;;;;;;3.23;2.33;;;;;;;7.79;59.68;93726.97;4984026;28;20187;-75
2023/12/23 09:30:04;;;;;;;3.77;2.63;;;;;;;7.76;59.64;93741.22;4976773;28;20227;-75
2023/12/23 09:32:30;;;;;;;2.90;2.50;;;;;;;7.65;59.21;93752.03;4983893;28;20223;-75
2023/12/23 09:34:55;;;;;;;2.77;2.00;;;;;;;7.53;59.65;93758.56;4988478;28;20216;-73
2023/12/23 09:37:21;;;;;;;2.77;2.10;;;;;;;7.49;59.01;93756.28;4984004;28;20241;-75
2023/12/23 09:39:46;;;;;;;2.67;1.77;;;;;;;7.41;59.16;93750.22;4982387;28;20267;-76
2023/12/23 09:42:12;;;;;;;5.20;1.90;;;;;;;7.44;59.19;93757.75;4981165;28;20224;-76
2023/12/23 09:44:37;;;;;;;1.60;1.50;;;;;;;7.49;58.94;93761.50;4982935;28;20290;-74
2023/12/23 09:47:05;;;;;;;2.07;1.60;;;;;;;7.54;58.78;93792.41;4984947;28;20243;-76
2023/12/23 09:49:31;;;;;;;2.77;1.90;;;;;;;7.36;59.38;93804.81;4990426;28;20295;-75
2023/12/23 09:51:59;;;;;;;1.97;1.80;;;;;;;7.23;60.23;93832.25;4984770;28;20198;-74
2023/12/23 09:54:26;;;;;;;2.30;1.90;;;;;;;7.02;61.59;93819.59;4975342;28;20207;-75
2023/12/23 09:56:52;;;;;;;2.20;1.60;;;;;;;7.00;63.43;93826.81;4974734;28;20290;-74
2023/12/23 09:59:17;;;;;;;1.70;1.53;;;;;;;6.93;64.38;93851.13;4982459;28;20212;-76
2023/12/23 10:01:44;;;;;;;2.03;1.73;;;;;;;6.72;64.51;93859.34;4992509;28;20216;-74
2023/12/23 10:04:09;;;;;;;2.97;1.67;;;;;;;6.74;65.28;93865.25;4983642;28;20224;-74
2023/12/23 10:06:35;;;;;;;1.67;1.57;;;;;;;6.74;65.42;93868.69;4992840;28;20233;-75
2023/12/23 10:09:00;;;;;;;2.10;1.50;;;;;;;6.69;65.30;93867.50;4967011;28;20227;-76
2023/12/23 10:11:26;;;;;;;1.67;1.40;;;;;;;6.56;65.76;93847.84;4990943;28;20226;-76
2023/12/23 10:13:53;;;;;;;1.60;1.33;;;;;;;6.37;66.55;93864.56;4981676;28;20227;-75
2023/12/23 10:16:18;;;;;;;1.77;1.40;;;;;;;6.50;66.14;93890.28;4984093;28;20226;-75
2023/12/23 10:18:46;;;;;;;2.33;1.63;;;;;;;6.60;66.15;93916.25;4988241;28;20188;-73
2023/12/23 10:21:11;;;;;;;2.03;1.70;;;;;;;6.50;66.42;93926.84;4988741;28;20223;-74
2023/12/23 10:23:37;;;;;;;2.07;1.50;;;;;;;6.33;66.13;93925.06;4982896;28;20224;-75
2023/12/23 10:26:03;;;;;;;2.43;1.30;;;;;;;6.36;66.47;93940.44;4982733;28;20315;-75
2023/12/23 10:28:28;;;;;;;1.40;1.30;;;;;;;6.43;66.34;93946.69;4964068;28;20224;-74
2023/12/23 10:31:00;;;;;;;2.00;1.70;;;;;;;6.42;65.83;93950.28;4964163;28;20262;-74
2023/12/23 10:33:29;;;;;;;2.63;1.70;;;;;;;6.21;66.80;93955.84;4987018;28;20187;-76
2023/12/23 10:35:57;;;;;;;4.00;2.03;;;;;;;6.14;66.80;93936.50;4991056;28;20231;-74
2023/12/23 10:38:26;;;;;;;2.40;1.70;;;;;;;6.24;67.03;93939.88;4987657;28;20243;-76
2023/12/23 10:41:10;;;;;;;1.20;1.10;;;;;;;6.14;66.42;93944.34;4971963;28;20223;-75
2023/12/23 10:43:37;;;;;;;2.47;1.30;;;;;;;6.17;65.83;93963.16;4993129;28;20216;-75
2023/12/23 10:46:06;;;;;;;1.60;1.20;;;;;;;6.18;66.37;93953.53;4985136;28;20192;-75
2023/12/23 10:48:32;;;;;;;2.53;1.27;;;;;;;6.24;66.30;93965.97;4983912;28;20242;-75
2023/12/23 10:51:00;;;;;;;2.07;1.30;;;;;;;6.29;66.26;93989.84;4986347;28;20228;-75
2023/12/23 10:53:26;;;;;;;2.17;1.33;;;;;;;6.33;65.75;93975.50;4973894;28;20227;-75
2023/12/23 10:55:53;;;;;;;1.67;1.30;;;;;;;6.29;66.06;93987.22;4986776;28;20216;-75
2023/12/23 10:58:20;;;;;;;2.90;1.33;;;;;;;6.25;66.05;93969.38;4980321;28;20219;-74
2023/12/23 11:00:46;;;;;;;1.70;1.20;;;;;;;6.19;66.46;93971.63;4991065;28;20184;-76
2023/12/23 11:03:13;;;;;;;1.67;1.23;;;;;;;6.39;65.59;93989.75;4965876;28;20231;-76
2023/12/23 11:05:41;;;;;;;5.63;1.37;;;;;;;6.46;66.00;93979.50;4967087;28;20311;-75
2023/12/23 11:08:11;;;;;;;2.47;1.30;;;;;;;6.40;66.00;93962.66;4987380;28;20234;-75
2023/12/23 11:10:39;;;;;;;1.30;1.20;;;;;;;6.43;65.85;93971.97;4985295;28;20354;-74
2023/12/23 11:13:07;;;;;;;1.63;1.43;;;;;;;6.44;66.16;93953.53;4988425;28;20194;-75
2023/12/23 11:15:32;;;;;;;1.50;1.20;;;;;;;6.56;65.57;93960.16;4974781;28;20207;-75
2023/12/23 11:17:58;;;;;;;1.37;1.10;;;;;;;6.53;64.96;93963.09;4964206;28;20215;-75
2023/12/23 11:20:33;;;;;;;1.77;1.20;;;;;;;6.63;64.88;93973.44;4966566;28;20220;-76
2023/12/23 11:23:26;;;;;;;1.43;1.33;;;;;;;6.60;64.52;93969.34;4968635;28;20214;-75
2023/12/23 11:25:52;;;;;;;1.10;1.00;;;;;;;6.44;64.01;93947.50;4970738;28;20215;-75
2023/12/23 11:28:19;;;;;;;1.23;1.00;;;;;;;6.47;63.73;93947.19;4968314;28;20216;-75
2023/12/23 11:30:48;;;;;;;1.17;1.07;;;;;;;6.47;63.38;93961.09;4972130;28;20290;-75
2023/12/23 11:33:14;;;;;;;1.10;1.00;;;;;;;6.47;63.22;93953.25;4987761;28;20245;-76
2023/12/23 11:35:47;;;;;;;1.13;1.00;;;;;;;6.14;63.61;93963.44;4990747;28;20214;-76